Time;durP1;ratioP1;P1;durP2;ratioP2;P2;SDS_P1;SDS_P2;PMS_P1;PMS_P2;Temp;Humidity;BMP_temperature;BMP_pressure;BME280_temperature;BME280_humidity;BME280_pressure;Samples;Min_cycle;Max_cycle;Signal;HPM_P1;HPM_P2
2023/03/05 00:01:40;;;;;;;16.50;4.07;;;;;;;8.52;50.08;94143.47;5077114;28;20385;-86
2023/03/05 00:04:09;;;;;;;13.40;4.65;;;;;;;8.88;50.08;94146.09;5060548;28;20349;-86
2023/03/05 00:06:35;;;;;;;10.63;3.88;;;;;;;8.36;50.13;94140.03;5077228;28;20127;-86
2023/03/05 00:09:01;;;;;;;12.52;3.78;;;;;;;8.39;51.47;94139.50;5078052;28;20394;-86
2023/03/05 00:11:32;;;;;;;9.35;3.80;;;;;;;8.47;51.62;94136.41;5076909;28;20024;-86
2023/03/05 00:13:58;;;;;;;10.15;3.63;;;;;;;8.30;51.42;94131.41;5060925;28;20020;-86
2023/03/05 00:16:25;;;;;;;11.35;3.72;;;;;;;8.07;51.71;94135.25;5077140;28;20028;-86
2023/03/05 00:18:51;;;;;;;10.55;3.83;;;;;;;8.12;50.61;94137.91;5060441;28;20138;-86
2023/03/05 00:21:23;;;;;;;7.22;3.08;;;;;;;8.41;49.57;94129.59;5076729;28;20029;-86
2023/03/05 00:23:52;;;;;;;16.58;3.80;;;;;;;8.21;49.68;94144.16;5076593;28;20101;-86
2023/03/05 00:26:22;;;;;;;9.07;3.90;;;;;;;8.52;50.07;94143.47;5076588;28;20036;-86
2023/03/05 00:28:50;;;;;;;8.82;3.90;;;;;;;8.57;49.53;94143.47;5076322;28;20029;-85
2023/03/05 00:31:17;;;;;;;10.52;3.00;;;;;;;8.33;49.92;94136.13;5076493;28;20032;-86
2023/03/05 00:33:43;;;;;;;14.65;3.75;;;;;;;8.31;49.35;94138.19;5076447;28;20021;-86
2023/03/05 00:36:08;;;;;;;9.23;3.60;;;;;;;8.15;50.41;94133.97;5076294;28;20031;-85
2023/03/05 00:38:34;;;;;;;8.45;3.42;;;;;;;8.09;50.27;94132.41;5076187;28;20064;-86
2023/03/05 00:41:00;;;;;;;8.10;3.25;;;;;;;8.01;51.58;94128.47;5076346;28;20036;-86
2023/03/05 00:43:26;;;;;;;10.95;3.72;;;;;;;7.85;51.68;94127.63;5076217;28;20058;-86
2023/03/05 00:45:52;;;;;;;9.95;3.83;;;;;;;7.71;51.42;94133.31;5059835;28;20024;-86
2023/03/05 00:48:18;;;;;;;8.63;3.38;;;;;;;7.69;51.34;94124.94;5076672;28;20052;-86
2023/03/05 00:50:43;;;;;;;8.75;3.30;;;;;;;7.61;51.65;94130.66;5076192;28;20064;-86
2023/03/05 00:53:09;;;;;;;9.27;3.75;;;;;;;7.42;52.52;94125.09;5076134;28;20027;-86
2023/03/05 00:55:35;;;;;;;5.68;2.97;;;;;;;7.44;52.57;94118.56;5076105;28;20106;-86
2023/03/05 00:58:01;;;;;;;7.43;2.90;;;;;;;7.43;51.91;94124.06;5076036;28;20047;-86
2023/03/05 01:00:26;;;;;;;8.50;2.95;;;;;;;7.27;52.29;94120.56;5075689;28;20028;-86
2023/03/05 01:02:51;;;;;;;7.35;2.88;;;;;;;7.00;52.61;94113.63;5075881;28;20425;-86
2023/03/05 01:05:17;;;;;;;8.02;3.05;;;;;;;7.22;51.78;94111.69;5059460;28;20031;-88
2023/03/05 01:07:42;;;;;;;11.50;3.22;;;;;;;7.22;52.11;94114.31;5076195;28;20107;-86
2023/03/05 01:10:08;;;;;;;9.63;3.67;;;;;;;7.45;51.69;94112.31;5075797;28;20074;-86
2023/03/05 01:12:34;;;;;;;11.13;2.92;;;;;;;7.40;51.75;94111.53;5058719;28;20082;-87
2023/03/05 01:14:59;;;;;;;6.90;2.53;;;;;;;7.34;51.57;94102.91;5075945;28;20433;-87
2023/03/05 01:17:25;;;;;;;8.73;2.65;;;;;;;7.29;51.32;94095.03;5076272;28;20119;-86
2023/03/05 01:19:50;;;;;;;8.07;2.40;;;;;;;7.32;50.35;94099.78;5075917;28;20388;-87
2023/03/05 01:22:16;;;;;;;7.20;2.83;;;;;;;7.32;50.23;94094.56;5059747;28;20024;-87
2023/03/05 01:24:41;;;;;;;10.93;2.75;;;;;;;7.37;50.31;94094.56;5075571;28;20058;-87
2023/03/05 01:27:06;;;;;;;7.78;2.83;;;;;;;7.43;49.81;94092.78;5076116;28;20131;-87
2023/03/05 01:29:32;;;;;;;6.57;2.90;;;;;;;7.39;49.37;94089.09;5059044;28;20032;-87
2023/03/05 01:31:57;;;;;;;9.00;2.45;;;;;;;7.41;49.02;94085.19;5077031;28;20029;-87
2023/03/05 01:34:23;;;;;;;4.57;2.13;;;;;;;7.56;48.29;94075.88;5075797;28;20020;-87
2023/03/05 01:37:16;;;;;;;6.70;2.60;;;;;;;7.69;49.14;94074.63;5059321;28;20025;-87
2023/03/05 01:39:41;;;;;;;5.28;2.10;;;;;;;7.48;48.40;94079.75;5075871;28;20029;-87
2023/03/05 01:42:07;;;;;;;11.32;2.60;;;;;;;7.78;47.00;94071.28;5076954;28;20024;-87
2023/03/05 01:44:33;;;;;;;11.50;2.67;;;;;;;7.86;47.66;94064.78;5059441;28;20040;-87
2023/03/05 01:46:59;;;;;;;5.97;1.98;;;;;;;7.60;47.54;94062.09;5075581;28;20031;-87
2023/03/05 01:49:33;;;;;;;7.57;2.20;;;;;;;7.69;47.27;94059.00;5075288;28;20029;-87
2023/03/05 01:52:05;;;;;;;5.32;2.10;;;;;;;7.98;45.75;94061.16;5075699;28;20055;-87
2023/03/05 01:54:38;;;;;;;7.28;2.35;;;;;;;8.26;45.63;94056.50;5075695;28;20024;-87
2023/03/05 01:57:08;;;;;;;10.32;2.20;;;;;;;8.10;46.11;94053.84;5075639;28;20501;-87
2023/03/05 01:59:35;;;;;;;4.25;2.08;;;;;;;7.86;47.10;94049.13;5075484;28;20031;-87
2023/03/05 02:02:02;;;;;;;4.90;2.10;;;;;;;7.55;47.42;94051.66;5061766;28;20024;-87
2023/03/05 02:04:37;;;;;;;8.57;1.98;;;;;;;7.58;48.03;94047.72;5079772;28;20024;-87
2023/03/05 02:07:03;;;;;;;5.10;1.88;;;;;;;7.23;48.21;94049.94;5079932;28;20054;-88
2023/03/05 02:09:28;;;;;;;8.02;1.58;;;;;;;7.28;47.51;94049.16;5079506;28;20029;-87
2023/03/05 02:11:54;;;;;;;7.55;2.20;;;;;;;7.32;47.47;94045.81;5079512;28;20039;-87
2023/03/05 02:14:21;;;;;;;4.30;1.88;;;;;;;7.28;46.69;94046.56;5062964;28;20024;-87
2023/03/05 02:16:46;;;;;;;8.23;2.17;;;;;;;7.38;47.11;94044.00;5079419;28;20025;-87
2023/03/05 02:19:12;;;;;;;8.25;2.30;;;;;;;7.40;46.88;94043.78;5079223;28;20067;-87
2023/03/05 02:21:43;;;;;;;5.15;1.70;;;;;;;7.64;47.39;94047.50;5062839;28;20310;-87
2023/03/05 02:24:11;;;;;;;4.35;1.95;;;;;;;7.53;47.24;94039.91;5078888;28;20115;-87
2023/03/05 02:26:37;;;;;;;4.32;1.80;;;;;;;7.13;47.44;94039.47;5062443;28;20111;-86
2023/03/05 02:29:04;;;;;;;6.68;2.03;;;;;;;7.27;47.41;94037.19;5078978;28;20157;-86
2023/03/05 02:31:30;;;;;;;8.32;2.17;;;;;;;7.24;46.09;94037.69;5078850;28;20035;-86
2023/03/05 02:33:55;;;;;;;7.05;2.17;;;;;;;7.10;47.30;94030.34;5062624;28;20099;-87
2023/03/05 02:36:21;;;;;;;4.32;1.50;;;;;;;7.17;46.23;94033.50;5079054;28;20032;-88
2023/03/05 02:39:08;;;;;;;3.05;1.50;;;;;;;7.45;45.70;94026.31;5062152;28;20075;-87
2023/03/05 02:41:34;;;;;;;4.05;1.48;;;;;;;7.31;44.65;94022.59;5078777;28;20430;-88
2023/03/05 02:43:59;;;;;;;3.60;1.50;;;;;;;7.41;45.33;94020.03;5078829;28;20028;-87
2023/03/05 02:46:25;;;;;;;4.15;1.65;;;;;;;7.38;45.49;94024.97;5078858;28;20029;-87
2023/03/05 02:48:50;;;;;;;8.13;2.08;;;;;;;7.34;44.52;94022.88;5078424;28;20024;-87
2023/03/05 02:51:16;;;;;;;7.43;1.63;;;;;;;7.61;43.71;94023.78;5062622;28;20033;-87
2023/03/05 02:53:41;;;;;;;2.63;1.23;;;;;;;7.52;46.41;94020.09;5078724;28;20415;-87
2023/03/05 02:56:07;;;;;;;7.25;1.42;;;;;;;7.27;45.52;94016.34;5062420;28;20059;-87
2023/03/05 02:58:33;;;;;;;7.55;1.40;;;;;;;7.08;44.73;94022.75;5061676;28;20047;-87
2023/03/05 03:00:58;;;;;;;6.30;1.50;;;;;;;7.57;43.84;94020.09;5061864;28;20035;-87
2023/03/05 03:03:23;;;;;;;6.45;1.42;;;;;;;7.71;43.10;94017.78;5078456;28;20107;-88
2023/03/05 03:05:49;;;;;;;8.50;1.45;;;;;;;7.49;45.81;94022.16;5078513;28;20024;-87
2023/03/05 03:08:14;;;;;;;5.20;2.17;;;;;;;7.34;45.38;94020.28;5079566;28;20082;-87
2023/03/05 03:10:40;;;;;;;4.68;1.50;;;;;;;7.31;44.28;94020.78;5078413;28;20074;-87
2023/03/05 03:13:05;;;;;;;6.15;1.27;;;;;;;7.27;45.24;94016.34;5077724;28;20027;-87
2023/03/05 03:15:31;;;;;;;4.47;1.55;;;;;;;6.89;46.24;94013.81;5077998;28;20032;-87
2023/03/05 03:17:58;;;;;;;10.00;1.75;;;;;;;6.92;45.87;94014.09;5061530;28;20345;-88
2023/03/05 03:20:24;;;;;;;6.28;1.33;;;;;;;7.01;45.87;94011.81;5078184;28;20337;-87
2023/03/05 03:22:50;;;;;;;5.38;1.30;;;;;;;6.74;46.57;94014.50;5075448;28;20061;-87
2023/03/05 03:25:18;;;;;;;3.63;1.00;;;;;;;7.06;44.45;94011.03;5061602;28;20062;-87
2023/03/05 03:27:44;;;;;;;3.30;1.77;;;;;;;7.05;44.93;94009.47;5057748;28;20024;-88
2023/03/05 03:30:11;;;;;;;3.03;1.48;;;;;;;6.95;45.61;94009.41;5077302;28;20027;-87
2023/03/05 03:32:36;;;;;;;4.45;1.35;;;;;;;6.91;45.54;94020.34;5077718;28;20020;-87
2023/03/05 03:35:02;;;;;;;5.43;1.40;;;;;;;6.86;45.74;94017.69;5070149;28;20319;-87
2023/03/05 03:37:28;;;;;;;7.03;1.23;;;;;;;7.06;43.53;94008.44;5057757;28;20448;-87
2023/03/05 03:39:53;;;;;;;4.43;1.23;;;;;;;7.37;42.66;94013.78;5041055;28;20028;-87
2023/03/05 03:42:20;;;;;;;1.67;1.02;;;;;;;7.42;42.78;94018.22;5057755;28;20067;-87
2023/03/05 03:44:46;;;;;;;2.55;1.10;;;;;;;7.40;44.08;94015.09;5057639;28;20123;-87
2023/03/05 03:47:12;;;;;;;5.30;1.33;;;;;;;7.25;44.80;94015.81;5058595;28;20028;-87
2023/03/05 03:49:38;;;;;;;2.03;1.13;;;;;;;7.35;42.86;94021.06;5056632;28;20025;-87
2023/03/05 03:52:04;;;;;;;5.80;1.20;;;;;;;7.51;42.16;94014.06;5057647;28;20032;-87
2023/03/05 03:54:30;;;;;;;4.10;0.80;;;;;;;7.32;41.48;94013.78;5057466;28;20044;-87
2023/03/05 03:56:56;;;;;;;5.68;1.00;;;;;;;7.70;40.65;94018.84;5057267;28;20021;-88
2023/03/05 03:59:21;;;;;;;3.80;1.30;;;;;;;7.83;40.36;94013.13;5057409;28;20028;-87
2023/03/05 04:01:47;;;;;;;6.00;1.10;;;;;;;8.03;40.12;94007.16;5057411;28;20024;-88
2023/03/05 04:04:16;;;;;;;4.32;0.90;;;;;;;8.11;40.20;94011.09;5058403;28;20457;-87
2023/03/05 04:06:42;;;;;;;6.97;1.75;;;;;;;7.82;44.21;94008.97;5058456;28;20025;-88
2023/03/05 04:09:07;;;;;;;2.28;0.95;;;;;;;7.67;41.25;94009.69;5057162;28;20025;-87
2023/03/05 04:11:34;;;;;;;3.33;1.13;;;;;;;7.82;42.01;94008.16;5057149;28;20029;-87
2023/03/05 04:14:00;;;;;;;2.53;1.10;;;;;;;7.62;41.68;94010.47;5040506;28;20028;-88
2023/03/05 04:16:25;;;;;;;5.43;1.30;;;;;;;7.48;42.52;94006.78;5057132;28;20024;-88
2023/03/05 04:18:51;;;;;;;3.63;1.35;;;;;;;7.37;42.20;94011.16;5057216;28;20024;-87
2023/03/05 04:21:16;;;;;;;4.97;1.42;;;;;;;7.21;43.40;94008.50;5057279;28;20025;-87
2023/03/05 04:23:42;;;;;;;4.57;1.02;;;;;;;7.18;42.47;94005.63;5039318;28;20437;-88
2023/03/05 04:26:07;;;;;;;8.82;1.23;;;;;;;7.01;43.41;94000.59;5057271;28;20025;-88
2023/03/05 04:28:33;;;;;;;7.78;1.58;;;;;;;6.86;43.35;94003.91;5056886;28;20430;-87
2023/03/05 04:30:58;;;;;;;3.17;1.23;;;;;;;6.97;42.40;94007.34;5056899;28;20475;-87
2023/03/05 04:33:24;;;;;;;2.35;1.00;;;;;;;7.14;41.33;94007.94;5056790;28;20083;-88
2023/03/05 04:35:50;;;;;;;6.03;1.58;;;;;;;7.04;43.34;93997.50;5056754;28;20024;-87
2023/03/05 04:38:15;;;;;;;3.35;0.95;;;;;;;7.06;41.91;93995.41;5056967;28;20052;-87
2023/03/05 04:40:41;;;;;;;4.32;1.00;;;;;;;6.93;42.58;93996.63;5041973;28;20025;-87
2023/03/05 04:43:06;;;;;;;1.92;0.98;;;;;;;6.79;43.48;93991.88;5060083;28;20028;-88
2023/03/05 04:45:32;;;;;;;5.90;1.50;;;;;;;6.74;43.02;94002.28;5076593;28;20430;-88
2023/03/05 04:47:58;;;;;;;6.00;1.30;;;;;;;6.85;41.47;93992.69;5060342;28;20024;-87
2023/03/05 04:50:23;;;;;;;6.95;0.82;;;;;;;6.88;41.42;94005.19;5076401;28;20051;-87
2023/03/05 04:52:49;;;;;;;2.63;1.00;;;;;;;6.85;41.21;93999.75;5059940;28;20132;-87
2023/03/05 04:55:16;;;;;;;5.80;1.02;;;;;;;7.03;40.68;94003.72;5060242;28;20027;-87
2023/03/05 04:57:41;;;;;;;2.58;1.10;;;;;;;7.20;40.38;94001.72;5077540;28;20441;-87
2023/03/05 05:00:13;;;;;;;2.80;1.13;;;;;;;7.41;39.90;93996.59;5076431;28;20028;-87
2023/03/05 05:02:43;;;;;;;4.00;1.52;;;;;;;7.41;40.09;94001.03;5056416;28;20064;-87
2023/03/05 05:05:12;;;;;;;2.92;1.13;;;;;;;7.37;40.33;93995.53;5040099;28;20043;-87
2023/03/05 05:07:38;;;;;;;8.57;1.10;;;;;;;7.15;40.33;94001.69;5061733;28;20074;-88
2023/03/05 05:10:04;;;;;;;3.88;1.33;;;;;;;7.05;40.43;93999.06;5045755;28;20037;-88
2023/03/05 05:12:30;;;;;;;3.08;1.25;;;;;;;6.83;40.99;93997.38;5055995;28;20036;-87
2023/03/05 05:14:57;;;;;;;6.68;1.20;;;;;;;7.02;40.85;93999.53;5039592;28;20040;-88
2023/03/05 05:17:22;;;;;;;3.75;1.10;;;;;;;6.96;40.64;93990.16;5039537;28;20127;-87
2023/03/05 05:19:48;;;;;;;3.90;1.58;;;;;;;6.85;41.74;93997.13;5056000;28;20454;-87
2023/03/05 05:22:14;;;;;;;3.90;1.30;;;;;;;6.81;41.37;93999.44;5056872;28;20033;-88
2023/03/05 05:24:40;;;;;;;1.70;0.90;;;;;;;6.69;42.16;93994.44;5055898;28;20039;-88
2023/03/05 05:27:05;;;;;;;2.10;1.15;;;;;;;6.63;41.56;93985.81;5055643;28;20036;-88
2023/03/05 05:29:31;;;;;;;4.47;1.20;;;;;;;6.89;40.54;93990.38;5055842;28;20036;-88
2023/03/05 05:31:56;;;;;;;3.35;1.23;;;;;;;6.78;40.99;93985.09;5057141;28;20064;-87
2023/03/05 05:34:24;;;;;;;3.67;1.00;;;;;;;7.00;40.29;93981.59;5055536;28;20028;-87
2023/03/05 05:36:50;;;;;;;2.70;1.08;;;;;;;6.99;39.50;93981.81;5056968;28;20389;-87
2023/03/05 05:39:16;;;;;;;9.90;1.33;;;;;;;7.36;38.20;93979.09;5055368;28;20032;-87
2023/03/05 05:41:41;;;;;;;5.80;1.30;;;;;;;7.53;37.17;93977.34;5039200;28;20033;-87
2023/03/05 05:44:07;;;;;;;2.72;1.30;;;;;;;7.45;38.86;93978.63;5055924;28;20418;-87
2023/03/05 05:46:32;;;;;;;2.53;1.27;;;;;;;7.17;40.48;93981.41;5056807;28;20039;-87
2023/03/05 05:48:58;;;;;;;4.43;1.27;;;;;;;6.95;40.94;93978.94;5055856;28;20024;-87
2023/03/05 05:51:23;;;;;;;4.57;1.17;;;;;;;6.92;41.55;93982.06;5055609;28;20033;-87
2023/03/05 05:53:49;;;;;;;8.32;1.75;;;;;;;6.87;41.30;93976.81;5055544;28;20059;-86
2023/03/05 05:56:15;;;;;;;3.00;1.02;;;;;;;6.69;41.43;93980.63;5055316;28;20036;-86
2023/03/05 05:58:41;;;;;;;4.32;1.02;;;;;;;6.75;41.15;93982.25;5055119;28;20051;-87
2023/03/05 06:01:20;;;;;;;4.28;1.40;;;;;;;6.98;41.23;93977.66;5055747;28;20442;-87
2023/03/05 06:03:46;;;;;;;2.72;1.00;;;;;;;6.74;40.54;93983.25;5066366;28;20033;-87
2023/03/05 06:06:15;;;;;;;4.13;1.70;;;;;;;6.92;41.64;93987.25;5075831;28;20024;-87
2023/03/05 06:08:40;;;;;;;2.78;1.05;;;;;;;6.78;40.45;93984.34;5075480;28;20024;-87
2023/03/05 06:11:06;;;;;;;3.65;1.30;;;;;;;7.02;40.53;93986.53;5058995;28;20119;-87
2023/03/05 06:13:32;;;;;;;4.68;1.40;;;;;;;7.01;41.36;93987.56;5058886;28;20025;-87
2023/03/05 06:16:00;;;;;;;4.50;1.48;;;;;;;7.06;42.54;93985.00;5058645;28;20078;-88
2023/03/05 06:18:26;;;;;;;3.00;1.33;;;;;;;7.17;40.66;93991.81;5076510;28;20326;-88
2023/03/05 06:20:57;;;;;;;3.05;1.08;;;;;;;7.48;41.15;93989.31;5075182;28;20035;-88
2023/03/05 06:23:23;;;;;;;7.50;1.20;;;;;;;7.39;40.53;93985.63;5076501;28;20025;-88
2023/03/05 06:25:48;;;;;;;6.57;1.40;;;;;;;7.48;39.72;93991.13;5075371;28;20055;-87
2023/03/05 06:28:14;;;;;;;3.65;1.20;;;;;;;7.55;40.19;93993.50;5075199;28;20059;-86
2023/03/05 06:30:39;;;;;;;6.60;1.67;;;;;;;7.75;40.55;93993.56;5075012;28;20036;-86
2023/03/05 06:33:05;;;;;;;4.90;1.40;;;;;;;7.84;40.31;94000.84;5075310;28;20119;-87
2023/03/05 06:35:31;;;;;;;7.47;1.10;;;;;;;7.92;40.50;94000.38;5075163;28;20025;-87
2023/03/05 06:37:56;;;;;;;7.30;1.30;;;;;;;8.00;40.23;93994.63;5075225;28;20029;-86
2023/03/05 06:40:22;;;;;;;3.70;1.23;;;;;;;8.05;42.03;94002.47;5074934;28;20025;-86
2023/03/05 06:42:47;;;;;;;8.70;1.45;;;;;;;8.15;41.17;94000.88;5074895;28;20068;-87
2023/03/05 06:45:13;;;;;;;2.00;0.95;;;;;;;8.22;39.02;93993.59;5075411;28;20036;-86
2023/03/05 06:47:38;;;;;;;4.43;1.25;;;;;;;8.33;39.75;93989.16;5077054;28;20062;-87
2023/03/05 06:50:04;;;;;;;6.43;1.40;;;;;;;8.42;41.64;93992.81;5078793;28;20434;-87
2023/03/05 06:52:30;;;;;;;5.00;1.30;;;;;;;8.47;42.10;93995.41;5078987;28;20028;-86
2023/03/05 06:54:55;;;;;;;8.23;1.20;;;;;;;8.55;41.29;93999.34;5079579;28;20103;-87
2023/03/05 06:57:21;;;;;;;2.42;1.10;;;;;;;8.80;41.49;93996.94;5078660;28;20032;-86
2023/03/05 06:59:47;;;;;;;3.80;1.70;;;;;;;8.85;40.15;93989.88;5079234;28;20063;-86
2023/03/05 07:02:13;;;;;;;3.33;1.35;;;;;;;8.98;39.70;93993.00;5078242;28;20028;-87
2023/03/05 07:04:39;;;;;;;3.55;1.33;;;;;;;9.10;39.90;93990.88;5078472;28;20025;-88
2023/03/05 07:07:04;;;;;;;4.07;1.35;;;;;;;9.15;40.11;93996.06;5078343;28;20025;-87
2023/03/05 07:09:30;;;;;;;7.78;1.30;;;;;;;9.21;40.05;93993.47;5055026;28;20323;-85
2023/03/05 07:11:55;;;;;;;1.65;1.00;;;;;;;9.30;40.05;93991.84;5078022;28;20136;-85
2023/03/05 07:14:21;;;;;;;6.80;1.13;;;;;;;9.38;40.99;93983.44;5070752;28;20025;-86
2023/03/05 07:16:46;;;;;;;2.85;1.50;;;;;;;9.44;42.16;93989.44;5041571;28;20120;-86
2023/03/05 07:19:12;;;;;;;2.70;1.08;;;;;;;9.48;43.40;93980.78;5057940;28;20025;-86
2023/03/05 07:21:38;;;;;;;5.10;1.05;;;;;;;9.61;42.90;93979.41;5058208;28;20032;-85
2023/03/05 07:24:04;;;;;;;4.72;1.17;;;;;;;9.72;44.01;93984.59;5057826;28;20032;-85
2023/03/05 07:26:32;;;;;;;4.22;1.48;;;;;;;9.83;43.37;93990.53;5057860;28;20025;-86
2023/03/05 07:28:58;;;;;;;4.03;1.48;;;;;;;9.86;44.37;93995.22;5058855;28;20029;-86
2023/03/05 07:31:29;;;;;;;3.92;1.27;;;;;;;10.01;43.20;93992.50;5059175;28;20108;-86
2023/03/05 07:33:55;;;;;;;3.30;1.60;;;;;;;9.88;42.73;93991.28;5068023;28;20473;-85
2023/03/05 07:36:21;;;;;;;2.65;1.20;;;;;;;9.98;41.79;93998.28;5044876;28;20037;-86
2023/03/05 07:38:47;;;;;;;5.47;1.58;;;;;;;10.02;41.91;93988.81;5041214;28;20029;-86
2023/03/05 07:41:18;;;;;;;10.45;2.40;;;;;;;10.19;43.74;93987.69;5058741;28;20075;-86
2023/03/05 07:43:45;;;;;;;4.97;1.65;;;;;;;10.00;42.06;93996.16;5057798;28;20435;-85
2023/03/05 07:46:13;;;;;;;4.35;1.63;;;;;;;9.99;43.15;93991.22;5041136;28;20032;-85
2023/03/05 07:48:38;;;;;;;5.97;1.73;;;;;;;10.23;42.30;93995.75;5041168;28;20036;-85
2023/03/05 07:51:10;;;;;;;4.53;1.50;;;;;;;10.52;42.30;93992.41;5040906;28;20056;-85
2023/03/05 07:53:35;;;;;;;6.55;1.40;;;;;;;10.49;42.47;93990.34;5040905;28;20123;-87
2023/03/05 07:56:01;;;;;;;4.38;1.33;;;;;;;10.59;43.43;93991.03;5057528;28;20068;-86
2023/03/05 07:58:26;;;;;;;7.28;1.60;;;;;;;10.55;44.08;93997.13;5057193;28;20021;-86
2023/03/05 08:00:52;;;;;;;5.10;1.60;;;;;;;10.52;42.61;93995.03;5057218;28;20025;-87
2023/03/05 08:03:17;;;;;;;15.45;1.75;;;;;;;10.36;43.62;93994.34;5057306;28;20025;-86
2023/03/05 08:05:43;;;;;;;5.35;1.75;;;;;;;10.69;42.79;93994.63;5057111;28;20025;-87
2023/03/05 08:08:08;;;;;;;3.92;1.75;;;;;;;10.81;43.18;93991.63;5040892;28;20031;-86
2023/03/05 08:10:35;;;;;;;8.43;1.80;;;;;;;10.87;44.58;93987.91;5057016;28;20035;-86
2023/03/05 08:13:00;;;;;;;7.22;1.70;;;;;;;11.03;44.58;93986.69;5040557;28;20079;-86
2023/03/05 08:15:26;;;;;;;4.10;1.67;;;;;;;10.99;43.27;93990.13;5058106;28;20342;-85
2023/03/05 08:17:51;;;;;;;3.72;1.50;;;;;;;10.89;40.62;93986.53;5056890;28;20024;-85
2023/03/05 08:20:18;;;;;;;5.03;1.50;;;;;;;11.03;40.86;93986.69;5040448;28;20025;-85
2023/03/05 08:22:43;;;;;;;4.43;1.52;;;;;;;11.14;41.01;93983.94;5056789;28;20380;-85
2023/03/05 08:25:09;;;;;;;6.55;1.65;;;;;;;11.14;40.85;93986.56;5039858;28;20167;-85
2023/03/05 08:27:38;;;;;;;3.78;1.40;;;;;;;11.57;42.84;93978.72;5056711;28;20035;-85
2023/03/05 08:30:05;;;;;;;3.58;1.63;;;;;;;11.62;41.60;93982.31;5040260;28;20021;-87
2023/03/05 08:32:30;;;;;;;4.53;1.55;;;;;;;11.54;42.04;93979.25;5057040;28;20024;-86
2023/03/05 08:35:01;;;;;;;4.15;1.60;;;;;;;11.27;42.02;93979.84;5040184;28;20021;-87
2023/03/05 08:37:27;;;;;;;2.67;1.20;;;;;;;11.52;39.37;93986.63;5056840;28;20115;-87
2023/03/05 08:39:53;;;;;;;3.70;1.60;;;;;;;11.48;41.31;93977.75;5057815;28;20533;-87
2023/03/05 08:42:18;;;;;;;4.38;1.35;;;;;;;11.64;40.87;93980.19;5057712;28;20107;-87
2023/03/05 08:44:44;;;;;;;2.97;1.50;;;;;;;11.78;40.85;93978.41;5057075;28;20083;-88
2023/03/05 08:47:09;;;;;;;3.30;1.65;;;;;;;11.53;41.06;93982.94;5056583;28;20074;-87
2023/03/05 08:49:36;;;;;;;2.95;1.30;;;;;;;11.87;41.31;93975.94;5056346;28;20025;-87
2023/03/05 08:52:01;;;;;;;2.72;1.35;;;;;;;11.88;41.88;93969.63;5039846;28;20170;-87
2023/03/05 08:54:26;;;;;;;3.42;1.38;;;;;;;11.99;41.48;93972.91;5056431;28;20100;-87
2023/03/05 08:56:52;;;;;;;3.40;1.83;;;;;;;12.05;41.61;93969.16;5040261;28;20029;-85
2023/03/05 08:59:17;;;;;;;6.22;1.70;;;;;;;11.95;43.99;93964.81;5056255;28;20028;-86
2023/03/05 09:01:43;;;;;;;5.75;1.35;;;;;;;12.06;43.33;93967.31;5056064;28;20102;-86
2023/03/05 09:04:08;;;;;;;2.58;1.60;;;;;;;12.09;42.68;93970.13;5057084;28;20073;-86
2023/03/05 09:06:38;;;;;;;3.25;1.20;;;;;;;12.07;44.26;93968.88;5039632;28;20435;-86
2023/03/05 09:09:06;;;;;;;3.03;1.50;;;;;;;12.12;42.50;93969.56;5056131;28;20057;-86
2023/03/05 09:11:34;;;;;;;3.00;1.48;;;;;;;12.38;42.47;93963.13;5066671;28;20074;-86
2023/03/05 09:14:03;;;;;;;4.03;1.45;;;;;;;12.48;41.98;93962.97;5059402;28;20323;-87
2023/03/05 09:16:29;;;;;;;3.65;1.50;;;;;;;12.59;40.60;93961.69;5077220;28;20028;-86
2023/03/05 09:18:55;;;;;;;5.90;1.58;;;;;;;12.79;40.63;93959.00;5075709;28;20055;-85
2023/03/05 09:21:20;;;;;;;3.83;1.30;;;;;;;12.81;40.55;93956.88;5075919;28;20032;-85
2023/03/05 09:23:46;;;;;;;3.38;1.58;;;;;;;12.71;41.44;93960.47;5075847;28;20032;-86
2023/03/05 09:26:14;;;;;;;7.57;1.25;;;;;;;13.05;40.15;93954.03;5075853;28;20032;-86
2023/03/05 09:28:40;;;;;;;7.22;1.52;;;;;;;13.11;41.80;93950.25;5059024;28;20037;-86
2023/03/05 09:31:07;;;;;;;4.80;1.30;;;;;;;13.33;41.35;93948.75;5059323;28;20058;-86
2023/03/05 09:33:33;;;;;;;5.70;1.73;;;;;;;13.23;40.29;93949.00;5059103;28;20085;-86
2023/03/05 09:36:00;;;;;;;3.97;1.67;;;;;;;13.36;40.11;93945.56;5075566;28;20032;-86
2023/03/05 09:38:26;;;;;;;4.38;1.42;;;;;;;13.34;39.69;93952.19;5075464;28;20036;-86
2023/03/05 09:41:13;;;;;;;11.15;1.83;;;;;;;13.66;42.50;93940.75;5055272;28;20490;-85
2023/03/05 09:43:44;;;;;;;3.17;1.40;;;;;;;13.74;41.36;93935.84;5055683;28;20032;-85
2023/03/05 09:46:15;;;;;;;5.75;1.52;;;;;;;13.74;39.63;93935.84;5055433;28;20025;-84
2023/03/05 09:48:53;;;;;;;8.00;1.67;;;;;;;13.95;38.49;93938.81;5055835;28;20036;-85
2023/03/05 09:51:28;;;;;;;4.13;1.63;;;;;;;13.84;37.14;93931.16;5055393;28;20364;-84
2023/03/05 09:54:04;;;;;;;5.55;2.28;;;;;;;13.98;33.92;93928.47;5077286;28;20027;-85
2023/03/05 09:56:34;;;;;;;4.50;1.63;;;;;;;14.04;35.25;93930.97;5095560;28;20119;-86
2023/03/05 09:59:27;;;;;;;7.00;1.60;;;;;;;14.27;35.12;93935.16;5095733;28;20035;-87
2023/03/05 10:01:55;;;;;;;7.55;1.77;;;;;;;14.07;34.77;93933.78;5087894;28;20066;-87
2023/03/05 10:04:26;;;;;;;6.40;1.83;;;;;;;14.17;33.98;93929.34;5079119;28;20063;-87
2023/03/05 10:07:23;;;;;;;4.20;1.65;;;;;;;14.41;36.40;93927.16;5095951;28;20028;-87
2023/03/05 10:09:55;;;;;;;5.53;2.00;;;;;;;14.46;36.54;93931.53;5077205;28;20039;-86
2023/03/05 10:12:41;;;;;;;8.27;2.30;;;;;;;14.68;37.27;93927.31;5095970;28;20059;-88
2023/03/05 10:15:14;;;;;;;5.63;2.10;;;;;;;14.75;34.95;93927.66;5095679;28;20036;-85
2023/03/05 10:17:58;;;;;;;5.22;2.10;;;;;;;14.81;35.18;93931.72;5095395;28;20028;-86
2023/03/05 10:20:33;;;;;;;5.75;2.20;;;;;;;15.04;35.86;93930.88;5095379;28;20024;-86
2023/03/05 10:23:01;;;;;;;4.78;2.00;;;;;;;14.57;35.28;93921.53;5098275;28;20024;-85
2023/03/05 10:26:01;;;;;;;5.60;2.38;;;;;;;15.00;37.21;93924.66;5069432;28;20039;-92
2023/03/05 10:28:55;;;;;;;12.27;2.20;;;;;;;15.23;36.26;93922.72;5059163;28;20119;-91
2023/03/05 10:31:42;;;;;;;7.40;2.88;;;;;;;15.29;35.43;93921.47;5060086;28;20104;-90
2023/03/05 10:34:26;;;;;;;4.43;2.25;;;;;;;15.07;31.39;93912.59;5059356;28;20094;-89
2023/03/05 10:36:58;;;;;;;9.55;2.63;;;;;;;15.49;33.14;93914.81;5059250;28;20384;-87
2023/03/05 10:39:51;;;;;;;8.30;2.53;;;;;;;15.23;33.75;93922.72;5079314;28;20060;-87
2023/03/05 10:42:23;;;;;;;7.47;2.60;;;;;;;15.36;34.14;93921.00;5078860;28;20046;-88
2023/03/05 10:44:54;;;;;;;8.98;3.00;;;;;;;15.34;31.89;93916.03;5078587;28;20036;-87
2023/03/05 10:47:40;;;;;;;8.80;2.60;;;;;;;15.53;31.86;93915.00;5078830;28;20116;-87
2023/03/05 10:50:22;;;;;;;9.10;3.25;;;;;;;15.35;30.61;93901.78;5061941;28;20114;-87
2023/03/05 10:53:12;;;;;;;8.43;1.90;;;;;;;15.59;30.91;93905.81;5062606;28;20025;-86
2023/03/05 10:55:38;;;;;;;6.70;2.30;;;;;;;15.36;32.88;93910.47;5059550;28;20417;-87
2023/03/05 10:58:16;;;;;;;9.43;2.40;;;;;;;15.61;31.20;93918.72;5058644;28;20059;-87
2023/03/05 11:01:00;;;;;;;6.63;2.50;;;;;;;15.12;31.16;93903.72;5058599;28;20365;-87
2023/03/05 11:03:25;;;;;;;10.88;2.40;;;;;;;15.11;31.03;93900.31;5042070;28;20032;-86
2023/03/05 11:06:01;;;;;;;5.22;2.10;;;;;;;15.09;31.97;93894.59;5041817;28;20028;-87
2023/03/05 11:08:32;;;;;;;6.40;2.40;;;;;;;15.26;32.45;93898.34;5067851;28;20050;-87
2023/03/05 11:11:21;;;;;;;5.05;2.25;;;;;;;15.99;30.32;93890.94;5061629;28;20028;-88
2023/03/05 11:14:03;;;;;;;5.18;2.20;;;;;;;16.23;30.84;93893.84;5078114;28;20488;-88
2023/03/05 11:16:33;;;;;;;6.05;2.33;;;;;;;15.86;30.93;93887.34;5061968;28;20042;-88
2023/03/05 11:19:20;;;;;;;10.15;2.20;;;;;;;15.60;31.26;93880.97;5077854;28;20043;-87
2023/03/05 11:22:03;;;;;;;5.00;2.03;;;;;;;15.89;30.45;93876.16;5061801;28;20047;-87
2023/03/05 11:24:28;;;;;;;7.75;2.70;;;;;;;16.00;32.13;93866.06;5078983;28;20345;-87
2023/03/05 11:26:56;;;;;;;3.97;1.90;;;;;;;16.10;30.38;93863.84;5061565;28;20028;-88
2023/03/05 11:29:25;;;;;;;6.55;2.05;;;;;;;16.13;30.77;93856.38;5061109;28;20389;-87
2023/03/05 11:31:51;;;;;;;6.18;2.17;;;;;;;16.31;29.38;93857.91;5077830;28;20024;-87
2023/03/05 11:34:16;;;;;;;7.70;1.70;;;;;;;15.60;31.45;93854.56;5061402;28;20083;-87
2023/03/05 11:36:43;;;;;;;4.88;2.10;;;;;;;16.41;28.91;93835.63;5077826;28;20028;-87
2023/03/05 11:39:17;;;;;;;4.28;1.50;;;;;;;16.59;29.28;93844.28;5074296;28;20033;-86
2023/03/05 11:41:47;;;;;;;3.70;2.08;;;;;;;16.42;25.71;93837.19;5044983;28;20082;-86
2023/03/05 11:44:23;;;;;;;7.28;2.13;;;;;;;16.46;28.04;93835.47;5063879;28;20032;-87